EGHH/BOH METAR and TAF weather

Enter ICAO airport designator
Station Type Date Time Source
EGHH METAR 2022/01/29 09:50 UTC NOAA

EGHH 290950Z 29016KT 9999 BKN017 12/09 Q1030


Station Type Date Time Source
EGHH Decoded METAR 2022/01/29 09:50 UTC NOAA

Bournemouth Airport, United Kingdom (EGHH) 50-47N 001-50W 0M
Jan 29, 2022 - 04:50 AM EST / 2022.01.29 0950 UTC
Wind: from the WNW (290 degrees) at 18 MPH (16 KT):0
Visibility: greater than 7 mile(s):0
Sky conditions: mostly cloudy
Temperature: 53 F (12 C)
Dew Point: 48 F (9 C)
Relative Humidity: 81%
Pressure (altimeter): 30.42 in. Hg (1030 hPa)
ob: EGHH 290950Z 29016KT 9999 BKN017 12/09 Q1030
cycle: 10

Station Type Date Time Source
EGHH TAF 2021/10/07 18:59 UTC NOAA

TAF EGHH 071752Z 0718/0823 CNL

Example: see airport list